createdAt,value
2019-04-03T00:00:05.867Z,10.94
2019-04-03T00:01:05.575Z,10.94
2019-04-03T00:02:05.565Z,10.94
2019-04-03T00:03:05.667Z,10.94
2019-04-03T00:04:05.545Z,10.94
2019-04-03T00:05:05.557Z,10.94
2019-04-03T00:06:06.082Z,10.94
2019-04-03T00:07:05.984Z,10.94
2019-04-03T00:08:06.374Z,10.94
2019-04-03T00:09:06.471Z,10.94
2019-04-03T00:10:06.595Z,10.94
2019-04-03T00:11:08.255Z,10.94
2019-04-03T00:12:05.810Z,10.88
2019-04-03T00:13:05.535Z,10.88
2019-04-03T00:14:05.872Z,10.88
2019-04-03T00:15:05.940Z,10.81
2019-04-03T00:16:05.565Z,10.81
2019-04-03T00:17:06.015Z,10.81
2019-04-03T00:18:05.561Z,10.81
2019-04-03T00:19:06.045Z,10.81
2019-04-03T00:20:05.796Z,10.81
2019-04-03T00:21:05.585Z,10.81
2019-04-03T00:22:05.646Z,10.81
2019-04-03T00:23:05.626Z,10.81
2019-04-03T00:24:05.934Z,10.81
2019-04-03T00:25:05.999Z,10.81
2019-04-03T00:26:05.584Z,10.75
2019-04-03T00:27:06.009Z,10.75
2019-04-03T00:28:05.564Z,10.75
2019-04-03T00:29:05.627Z,10.75
2019-04-03T00:30:06.009Z,10.75
2019-04-03T00:31:05.554Z,10.75
2019-04-03T00:32:05.711Z,10.75
2019-04-03T00:33:06.163Z,10.75
2019-04-03T00:34:05.601Z,10.75
2019-04-03T00:35:05.592Z,10.75
2019-04-03T00:36:05.608Z,10.75
2019-04-03T00:37:05.595Z,10.75
2019-04-03T00:38:05.767Z,10.75
2019-04-03T00:39:05.592Z,10.75
2019-04-03T00:40:05.594Z,10.75
2019-04-03T00:41:05.651Z,10.75
2019-04-03T00:42:05.585Z,10.75
2019-04-03T00:43:05.594Z,10.75
2019-04-03T00:44:06.085Z,10.75
2019-04-03T00:45:05.577Z,10.75
2019-04-03T00:46:05.995Z,10.75
2019-04-03T00:47:05.662Z,10.69
2019-04-03T00:48:05.574Z,10.69
2019-04-03T00:49:05.891Z,10.69
2019-04-03T00:50:10.320Z,10.69
2019-04-03T00:51:05.597Z,10.69
2019-04-03T00:52:05.689Z,10.69
2019-04-03T00:54:06.012Z,10.69
2019-04-03T00:55:05.626Z,10.69
2019-04-03T00:56:05.664Z,10.69
2019-04-03T00:57:05.595Z,10.69
2019-04-03T00:58:05.660Z,10.69
2019-04-03T00:59:05.619Z,10.69
2019-04-03T01:00:05.667Z,10.69
2019-04-03T01:01:05.727Z,10.69
2019-04-03T01:02:05.590Z,10.62
2019-04-03T01:03:05.590Z,10.62
2019-04-03T01:04:05.729Z,10.62
2019-04-03T01:05:05.593Z,10.62
2019-04-03T01:06:05.609Z,10.62
2019-04-03T01:07:05.626Z,10.56
2019-04-03T01:08:05.615Z,10.56
2019-04-03T01:09:06.014Z,10.56
2019-04-03T01:10:05.790Z,10.56
2019-04-03T01:12:05.934Z,10.56
2019-04-03T01:13:05.604Z,10.50
2019-04-03T01:14:05.800Z,10.50
2019-04-03T01:15:05.594Z,10.50
2019-04-03T01:16:05.812Z,10.50
2019-04-03T01:17:05.783Z,10.50
2019-04-03T01:18:05.610Z,10.50
2019-04-03T01:19:06.329Z,10.50
2019-04-03T01:20:06.314Z,10.50
2019-04-03T01:21:06.802Z,10.44
2019-04-03T01:22:07.329Z,10.44
2019-04-03T01:23:07.242Z,10.44
2019-04-03T01:24:07.289Z,10.38
2019-04-03T01:25:08.169Z,10.38
2019-04-03T01:26:05.679Z,10.38
2019-04-03T01:27:05.656Z,10.38
2019-04-03T01:28:05.650Z,10.31
2019-04-03T01:29:05.634Z,10.31
2019-04-03T01:30:05.614Z,10.31
2019-04-03T01:31:05.616Z,10.31
2019-04-03T01:32:05.626Z,10.31
2019-04-03T01:33:05.698Z,10.31
2019-04-03T01:34:05.614Z,10.31
2019-04-03T01:35:05.748Z,10.25
2019-04-03T01:36:05.610Z,10.25
2019-04-03T01:37:05.708Z,10.25
2019-04-03T01:38:05.800Z,10.25
2019-04-03T01:39:05.648Z,10.25
2019-04-03T01:40:05.654Z,10.25
2019-04-03T01:41:05.694Z,10.25
2019-04-03T01:42:05.626Z,10.19
2019-04-03T01:43:05.715Z,10.19
2019-04-03T01:44:05.665Z,10.19
2019-04-03T01:45:05.967Z,10.19
2019-04-03T01:46:05.800Z,10.19
2019-04-03T01:47:05.709Z,10.12
2019-04-03T01:48:05.855Z,10.12
2019-04-03T01:49:05.947Z,10.12
2019-04-03T01:50:05.767Z,10.12
2019-04-03T01:51:05.640Z,10.12
2019-04-03T01:52:05.930Z,10.12
2019-04-03T01:54:06.130Z,10.06
2019-04-03T01:55:06.030Z,10.06
2019-04-03T01:56:05.950Z,10.06
2019-04-03T01:57:06.389Z,10.06
2019-04-03T01:58:06.491Z,10.06
2019-04-03T01:59:06.556Z,10.06
2019-04-03T02:00:07.428Z,10.06
2019-04-03T02:01:06.274Z,10.06
2019-04-03T02:02:06.666Z,10.06
2019-04-03T02:03:05.630Z,10.06
2019-04-03T02:04:05.834Z,10.06
2019-04-03T02:05:06.160Z,10.00
2019-04-03T02:06:05.786Z,10.00
2019-04-03T02:07:05.655Z,10.00
2019-04-03T02:09:05.680Z,10.00
2019-04-03T02:10:05.682Z,10.00
2019-04-03T02:11:05.791Z,10.00
2019-04-03T02:12:05.652Z,10.00
2019-04-03T02:13:05.721Z,10.00
2019-04-03T02:14:05.716Z,10.00
2019-04-03T02:15:05.656Z,10.00
2019-04-03T02:16:05.914Z,10.00
2019-04-03T02:17:05.827Z,10.00
2019-04-03T02:18:05.671Z,10.00
2019-04-03T02:19:05.676Z,9.94
2019-04-03T02:20:05.682Z,9.94
2019-04-03T02:21:05.791Z,9.94
2019-04-03T02:22:05.706Z,9.94
2019-04-03T02:23:05.746Z,9.94
2019-04-03T02:24:05.795Z,9.94
2019-04-03T02:25:05.693Z,9.94
2019-04-03T02:26:05.796Z,9.94
2019-04-03T02:27:05.739Z,9.94
2019-04-03T02:28:06.512Z,9.94
2019-04-03T02:29:08.168Z,9.94
2019-04-03T02:30:05.720Z,9.94
2019-04-03T02:31:06.250Z,9.94
2019-04-03T02:32:05.749Z,9.94
2019-04-03T02:33:05.709Z,9.94
2019-04-03T02:34:05.780Z,9.88
2019-04-03T02:35:07.680Z,9.94
2019-04-03T02:36:05.740Z,9.88
2019-04-03T02:37:05.760Z,9.88
2019-04-03T02:38:05.701Z,9.94
2019-04-03T02:39:05.707Z,9.94
2019-04-03T02:40:05.719Z,9.94
2019-04-03T02:41:05.749Z,9.88
2019-04-03T02:42:08.470Z,9.94
2019-04-03T02:43:13.418Z,9.88
2019-04-03T02:44:05.703Z,9.88
2019-04-03T02:45:05.719Z,9.88
2019-04-03T02:46:05.823Z,9.88
2019-04-03T02:47:05.726Z,9.88
2019-04-03T02:48:06.488Z,9.88
2019-04-03T02:49:09.009Z,9.88
2019-04-03T02:50:05.746Z,9.88
2019-04-03T02:51:05.689Z,9.88
2019-04-03T02:52:05.768Z,9.81
2019-04-03T02:53:05.725Z,9.81
2019-04-03T02:54:05.782Z,9.81
2019-04-03T02:55:07.271Z,9.81
2019-04-03T02:56:06.040Z,9.81
2019-04-03T02:57:05.758Z,9.81
2019-04-03T02:58:05.751Z,9.81
2019-04-03T02:59:05.782Z,9.75
2019-04-03T03:00:05.806Z,9.75
2019-04-03T03:01:07.209Z,9.75
2019-04-03T03:02:05.728Z,9.75
2019-04-03T03:03:06.113Z,9.75
2019-04-03T03:04:05.713Z,9.75
2019-04-03T03:05:05.764Z,9.69
2019-04-03T03:06:05.699Z,9.69
2019-04-03T03:07:05.759Z,9.69
2019-04-03T03:08:07.964Z,9.69
2019-04-03T03:09:05.737Z,9.69
2019-04-03T03:10:05.981Z,9.69
2019-04-03T03:11:05.749Z,9.69
2019-04-03T03:12:05.740Z,9.62
2019-04-03T03:13:05.704Z,9.62
2019-04-03T03:14:07.169Z,9.62
2019-04-03T03:15:05.724Z,9.62
2019-04-03T03:16:05.811Z,9.62
2019-04-03T03:17:05.695Z,9.62
2019-04-03T03:18:05.992Z,9.62
2019-04-03T03:19:05.756Z,9.62
2019-04-03T03:20:07.608Z,9.62
2019-04-03T03:21:12.677Z,9.56
2019-04-03T03:22:05.893Z,9.56
2019-04-03T03:23:05.781Z,9.56
2019-04-03T03:24:05.725Z,9.56
2019-04-03T03:25:05.865Z,9.56
2019-04-03T03:26:06.194Z,9.56
2019-04-03T03:27:07.983Z,9.56
2019-04-03T03:28:05.732Z,9.56
2019-04-03T03:29:16.094Z,9.56
2019-04-03T03:30:29.879Z,9.56
2019-04-03T03:31:07.382Z,9.56
2019-04-03T03:32:14.411Z,9.56
2019-04-03T03:33:23.622Z,9.56
2019-04-03T03:34:06.597Z,9.56
2019-04-03T03:35:11.487Z,9.50
2019-04-03T03:36:05.806Z,9.50
2019-04-03T03:37:05.906Z,9.50
2019-04-03T03:38:06.942Z,9.50
2019-04-03T03:39:05.725Z,9.50
2019-04-03T03:40:05.764Z,9.50
2019-04-03T03:41:05.774Z,9.44
2019-04-03T03:42:05.749Z,9.50
2019-04-03T03:43:10.310Z,9.50
2019-04-03T03:44:09.510Z,9.44
2019-04-03T03:45:06.382Z,9.44
2019-04-03T03:46:05.906Z,9.44
2019-04-03T03:47:05.904Z,9.44
2019-04-03T03:48:08.850Z,9.44
2019-04-03T03:49:06.165Z,9.44
2019-04-03T03:50:05.746Z,9.44
2019-04-03T03:51:05.888Z,9.44
2019-04-03T03:52:06.263Z,9.44
2019-04-03T03:53:09.590Z,9.44
2019-04-03T03:54:05.792Z,9.44
2019-04-03T03:55:05.809Z,9.44
2019-04-03T03:56:05.775Z,9.38
2019-04-03T03:57:07.169Z,9.38
2019-04-03T03:58:06.027Z,9.38
2019-04-03T03:59:05.749Z,9.38
2019-04-03T04:00:05.782Z,9.38
2019-04-03T04:01:05.822Z,9.38
2019-04-03T04:02:06.507Z,9.38
2019-04-03T04:03:08.495Z,9.38
2019-04-03T04:04:05.841Z,9.38
2019-04-03T04:05:09.760Z,9.38
2019-04-03T04:06:05.963Z,9.38
2019-04-03T04:07:05.888Z,9.31
2019-04-03T04:08:08.920Z,9.31
2019-04-03T04:09:05.994Z,9.31
2019-04-03T04:10:05.749Z,9.31
2019-04-03T04:11:05.776Z,9.31
2019-04-03T04:12:07.284Z,9.31
2019-04-03T04:13:05.850Z,9.31
2019-04-03T04:14:05.973Z,9.31
2019-04-03T04:15:05.775Z,9.31
2019-04-03T04:16:05.893Z,9.25
2019-04-03T04:17:08.575Z,9.25
2019-04-03T04:18:06.101Z,9.25
2019-04-03T04:19:05.786Z,9.25
2019-04-03T04:20:06.269Z,9.25
2019-04-03T04:21:09.322Z,9.25
2019-04-03T04:22:05.799Z,9.25
2019-04-03T04:23:06.180Z,9.25
2019-04-03T04:24:05.812Z,9.19
2019-04-03T04:25:05.935Z,9.19
2019-04-03T04:26:05.790Z,9.19
2019-04-03T04:27:05.770Z,9.19
2019-04-03T04:28:08.252Z,9.19
2019-04-03T04:29:06.059Z,9.19
2019-04-03T04:30:05.791Z,9.19
2019-04-03T04:31:05.820Z,9.12
2019-04-03T04:33:05.807Z,9.12
2019-04-03T04:34:05.806Z,9.12
2019-04-03T04:35:05.779Z,9.12
2019-04-03T04:36:05.942Z,9.06
2019-04-03T04:37:05.788Z,9.06
2019-04-03T04:38:05.803Z,9.06
2019-04-03T04:39:05.798Z,9.06
2019-04-03T04:40:05.801Z,9.06
2019-04-03T04:41:05.937Z,9.06
2019-04-03T04:42:05.788Z,9.00
2019-04-03T04:43:07.331Z,9.00
2019-04-03T04:44:06.033Z,9.00
2019-04-03T04:45:05.847Z,9.00
2019-04-03T04:46:05.799Z,8.94
2019-04-03T04:47:05.828Z,8.94
2019-04-03T04:48:05.886Z,8.94
2019-04-03T04:49:06.050Z,8.94
2019-04-03T04:50:05.813Z,8.88
2019-04-03T04:51:05.806Z,8.88
2019-04-03T04:52:05.813Z,8.88
2019-04-03T04:53:10.253Z,9.00
2019-04-03T04:54:05.850Z,9.06
2019-04-03T04:55:05.878Z,9.19
2019-04-03T04:56:06.472Z,9.25
2019-04-03T04:58:05.865Z,9.19
2019-04-03T04:59:05.817Z,9.12
2019-04-03T05:00:05.822Z,9.12
2019-04-03T05:01:05.837Z,9.06
2019-04-03T05:02:05.838Z,9.00
2019-04-03T05:03:05.874Z,9.00
2019-04-03T05:04:06.058Z,9.00
2019-04-03T05:06:05.876Z,9.00
2019-04-03T05:06:10.434Z,8.94
2019-04-03T05:07:06.032Z,9.12
2019-04-03T05:08:05.814Z,9.19
2019-04-03T05:09:05.797Z,9.31
2019-04-03T05:11:07.465Z,9.56
2019-04-03T05:13:05.827Z,9.56
2019-04-03T05:14:05.793Z,9.50
2019-04-03T05:15:05.803Z,9.44
2019-04-03T05:16:05.937Z,9.38
2019-04-03T05:17:05.814Z,9.31
2019-04-03T05:18:05.852Z,9.25
2019-04-03T05:19:09.933Z,9.19
2019-04-03T05:20:05.830Z,9.12
2019-04-03T05:21:05.817Z,9.06
2019-04-03T05:22:05.983Z,9.12
2019-04-03T05:23:06.084Z,9.25
2019-04-03T05:24:12.391Z,9.25
2019-04-03T05:25:05.848Z,9.38
2019-04-03T05:26:05.833Z,9.56
2019-04-03T05:27:07.409Z,9.56
2019-04-03T05:28:05.799Z,9.50
2019-04-03T05:29:05.815Z,9.44
2019-04-03T05:30:06.546Z,9.44
2019-04-03T05:31:07.928Z,9.38
2019-04-03T05:32:05.843Z,9.31
2019-04-03T05:33:05.859Z,9.31
2019-04-03T05:34:05.841Z,9.31
2019-04-03T05:35:06.130Z,9.31
2019-04-03T05:36:05.873Z,9.25
2019-04-03T05:39:05.865Z,9.25
2019-04-03T05:39:10.569Z,9.25
2019-04-03T05:40:05.875Z,9.25
2019-04-03T05:41:05.969Z,9.25
2019-04-03T05:42:05.859Z,9.25
2019-04-03T05:43:05.997Z,9.38
2019-04-03T05:44:05.840Z,9.56
2019-04-03T05:45:05.923Z,9.62
2019-04-03T05:46:06.331Z,9.56
2019-04-03T05:47:07.816Z,9.56
2019-04-03T05:48:06.824Z,9.56
2019-04-03T05:49:05.868Z,9.56
2019-04-03T05:50:05.888Z,9.50
2019-04-03T05:51:06.178Z,9.50
2019-04-03T05:52:05.848Z,9.50
2019-04-03T05:53:06.525Z,9.56
2019-04-03T05:54:07.730Z,9.56
2019-04-03T05:55:06.003Z,9.62
2019-04-03T05:56:05.850Z,9.75
2019-04-03T05:57:10.818Z,9.81
2019-04-03T05:58:05.869Z,9.88
2019-04-03T05:59:05.906Z,9.94
2019-04-03T06:00:06.771Z,10.00
2019-04-03T06:01:06.844Z,10.00
2019-04-03T06:02:14.532Z,10.25
2019-04-03T06:03:05.889Z,10.62
2019-04-03T06:04:05.885Z,10.94
2019-04-03T06:05:06.569Z,11.12
2019-04-03T06:06:06.115Z,11.25
2019-04-03T06:07:05.883Z,11.25
2019-04-03T06:08:05.936Z,11.31
2019-04-03T06:09:05.899Z,11.38
2019-04-03T06:10:06.212Z,11.31
2019-04-03T06:11:08.316Z,11.31
2019-04-03T06:12:08.292Z,11.25
2019-04-03T06:13:06.296Z,11.19
2019-04-03T06:14:08.190Z,11.12
2019-04-03T06:15:08.818Z,11.19
2019-04-03T06:16:06.055Z,11.19
2019-04-03T06:17:05.873Z,11.19
2019-04-03T06:18:06.074Z,11.19
2019-04-03T06:19:06.743Z,11.12
2019-04-03T06:20:05.894Z,11.12
2019-04-03T06:21:06.114Z,11.12
2019-04-03T06:22:06.073Z,11.06
2019-04-03T06:23:05.882Z,11.06
2019-04-03T06:24:05.897Z,11.06
2019-04-03T06:25:05.927Z,11.06
2019-04-03T06:27:06.000Z,11.19
2019-04-03T06:28:05.948Z,11.31
2019-04-03T06:29:07.609Z,11.44
2019-04-03T06:30:06.128Z,11.44
2019-04-03T06:31:08.051Z,11.50
2019-04-03T06:32:06.429Z,11.62
2019-04-03T06:33:06.002Z,11.56
2019-04-03T06:34:07.318Z,11.56
2019-04-03T06:35:05.907Z,11.56
2019-04-03T06:36:06.087Z,11.62
2019-04-03T06:37:05.927Z,11.62
2019-04-03T06:38:05.957Z,11.56
2019-04-03T06:40:05.952Z,11.62
2019-04-03T06:41:07.764Z,11.56
2019-04-03T06:42:06.032Z,11.56
2019-04-03T06:43:05.902Z,11.50
2019-04-03T06:44:05.911Z,11.50
2019-04-03T06:45:05.895Z,11.50
2019-04-03T06:46:05.912Z,11.44
2019-04-03T06:47:05.950Z,11.44
2019-04-03T06:48:05.933Z,11.44
2019-04-03T06:49:07.805Z,11.50
2019-04-03T06:50:05.927Z,11.62
2019-04-03T06:52:05.920Z,12.00
2019-04-03T06:53:05.946Z,12.06
2019-04-03T06:54:07.779Z,12.06
2019-04-03T06:55:05.977Z,12.06
2019-04-03T06:56:07.607Z,12.00
2019-04-03T06:57:05.925Z,11.94
2019-04-03T06:58:05.949Z,11.94
2019-04-03T06:59:06.059Z,11.94
2019-04-03T07:00:05.950Z,11.88
2019-04-03T07:01:05.961Z,11.88
2019-04-03T07:03:05.961Z,11.81
2019-04-03T07:03:10.726Z,11.88
2019-04-03T07:04:07.204Z,11.81
2019-04-03T07:05:05.947Z,11.81
2019-04-03T07:06:05.922Z,11.81
2019-04-03T07:07:05.953Z,11.81
2019-04-03T07:08:06.339Z,11.81
2019-04-03T07:09:06.251Z,11.81
2019-04-03T07:10:08.413Z,11.81
2019-04-03T07:11:06.039Z,11.94
2019-04-03T07:12:05.944Z,11.94
2019-04-03T07:13:05.961Z,12.00
2019-04-03T07:14:05.962Z,12.00
2019-04-03T07:15:05.972Z,12.06
2019-04-03T07:16:06.013Z,12.12
2019-04-03T07:17:06.154Z,12.19
2019-04-03T07:18:06.621Z,12.25
2019-04-03T07:19:08.125Z,12.50
2019-04-03T07:20:13.177Z,12.69
2019-04-03T07:21:06.144Z,12.88
2019-04-03T07:22:05.972Z,13.00
2019-04-03T07:23:06.182Z,13.12
2019-04-03T07:24:06.052Z,13.06
2019-04-03T07:25:05.975Z,13.06
2019-04-03T07:26:06.024Z,13.06
2019-04-03T07:28:08.179Z,13.06
2019-04-03T07:29:05.983Z,13.12
2019-04-03T07:30:06.047Z,13.12
2019-04-03T07:31:05.978Z,13.12
2019-04-03T07:32:06.005Z,13.19
2019-04-03T07:33:06.342Z,13.19
2019-04-03T07:34:06.004Z,13.25
2019-04-03T07:35:09.294Z,13.31
2019-04-03T07:36:05.992Z,13.38
2019-04-03T07:37:06.010Z,13.50
2019-04-03T07:38:05.986Z,13.62
2019-04-03T07:40:06.023Z,13.75
2019-04-03T07:41:06.204Z,13.75
2019-04-03T07:42:06.024Z,13.81
2019-04-03T07:43:06.101Z,13.81
2019-04-03T07:45:06.010Z,13.81
2019-04-03T07:46:06.008Z,13.81
2019-04-03T07:47:05.971Z,13.88
2019-04-03T07:48:06.937Z,13.88
2019-04-03T07:49:06.749Z,13.88
2019-04-03T07:50:06.003Z,13.88
2019-04-03T07:51:05.968Z,13.94
2019-04-03T07:52:05.963Z,14.12
2019-04-03T07:53:05.998Z,14.19
2019-04-03T07:54:05.969Z,14.19
2019-04-03T07:55:05.967Z,14.25
2019-04-03T07:56:06.284Z,14.19
2019-04-03T07:57:05.976Z,14.25
2019-04-03T07:58:06.214Z,14.25
2019-04-03T07:59:06.052Z,14.31
2019-04-03T08:00:07.014Z,14.38
2019-04-03T08:01:05.968Z,14.31
2019-04-03T08:02:05.982Z,14.25
2019-04-03T08:03:06.094Z,14.19
2019-04-03T08:04:05.992Z,14.12
2019-04-03T08:05:05.970Z,14.12
2019-04-03T08:06:06.210Z,14.06
2019-04-03T08:07:05.984Z,14.00
2019-04-03T08:08:06.039Z,14.00
2019-04-03T08:09:08.153Z,13.94
2019-04-03T08:10:06.019Z,13.94
2019-04-03T08:11:06.053Z,13.94
2019-04-03T08:12:05.980Z,13.88
2019-04-03T08:13:06.563Z,13.88
2019-04-03T08:14:06.700Z,13.88
2019-04-03T08:17:06.039Z,13.81
2019-04-03T08:18:06.133Z,13.88
2019-04-03T08:19:08.070Z,13.94
2019-04-03T08:20:06.008Z,14.00
2019-04-03T08:21:06.043Z,14.00
2019-04-03T08:22:06.176Z,13.94
2019-04-03T08:23:06.248Z,13.94
2019-04-03T08:24:08.050Z,13.94
2019-04-03T08:25:06.019Z,13.88
2019-04-03T08:26:06.038Z,13.88
2019-04-03T08:28:06.298Z,13.81
2019-04-03T08:29:05.968Z,13.88
2019-04-03T08:30:08.425Z,13.81
2019-04-03T08:32:06.057Z,13.81
2019-04-03T08:32:10.722Z,13.81
2019-04-03T08:33:15.065Z,13.81
2019-04-03T08:34:15.444Z,13.81
2019-04-03T08:35:18.664Z,13.88
2019-04-03T08:36:07.616Z,14.06
2019-04-03T08:37:05.994Z,14.19
2019-04-03T08:38:05.994Z,14.19
2019-04-03T08:39:06.015Z,14.19
2019-04-03T08:40:05.990Z,14.12
2019-04-03T08:41:06.326Z,14.12
2019-04-03T08:42:06.092Z,14.06
2019-04-03T08:43:06.021Z,14.00
2019-04-03T08:44:07.947Z,14.00
2019-04-03T08:45:06.892Z,14.19
2019-04-03T08:46:06.011Z,14.31
2019-04-03T08:47:06.026Z,14.56
2019-04-03T08:48:06.763Z,14.50
2019-04-03T08:49:06.105Z,14.44
2019-04-03T08:50:06.122Z,14.38
2019-04-03T08:51:06.077Z,14.31
2019-04-03T08:52:10.450Z,14.25
2019-04-03T08:53:08.303Z,14.25
2019-04-03T08:54:06.107Z,14.19
2019-04-03T08:55:06.025Z,14.19
2019-04-03T08:56:06.019Z,14.12
2019-04-03T08:57:06.033Z,14.12
2019-04-03T08:58:06.023Z,14.06
2019-04-03T08:59:06.010Z,14.06
2019-04-03T09:00:06.140Z,14.06
2019-04-03T09:01:06.043Z,14.06
2019-04-03T09:02:07.847Z,14.06
2019-04-03T09:03:06.036Z,14.00
2019-04-03T09:04:06.063Z,14.00
2019-04-03T09:05:06.037Z,14.00
2019-04-03T09:07:06.135Z,14.00
2019-04-03T09:07:10.554Z,14.00
2019-04-03T09:08:06.039Z,14.00
2019-04-03T09:09:06.092Z,14.00
2019-04-03T09:10:06.051Z,14.00
2019-04-03T09:11:06.096Z,14.00
2019-04-03T09:12:07.239Z,14.06
2019-04-03T09:13:16.469Z,14.06
2019-04-03T09:14:06.049Z,14.06
2019-04-03T09:15:06.046Z,14.06
2019-04-03T09:16:06.062Z,14.00
2019-04-03T09:17:06.290Z,14.00
2019-04-03T09:18:06.882Z,14.06
2019-04-03T09:19:06.221Z,14.06
2019-04-03T09:20:06.063Z,14.06
2019-04-03T09:21:06.095Z,14.06
2019-04-03T09:22:06.331Z,14.06
2019-04-03T09:23:06.043Z,14.06
2019-04-03T09:24:06.042Z,14.06
2019-04-03T09:25:06.348Z,14.12
2019-04-03T09:26:06.043Z,14.12
2019-04-03T09:27:08.127Z,14.12
2019-04-03T09:28:06.184Z,14.19
2019-04-03T09:29:06.078Z,14.19
2019-04-03T09:30:06.162Z,14.19
2019-04-03T09:31:06.035Z,14.19
2019-04-03T09:32:06.055Z,14.25
2019-04-03T09:33:06.071Z,14.25
2019-04-03T09:34:06.054Z,14.25
2019-04-03T09:35:06.147Z,14.31
2019-04-03T09:36:06.273Z,14.31
2019-04-03T09:37:07.029Z,14.31
2019-04-03T09:38:08.676Z,14.38
2019-04-03T09:39:06.093Z,14.38
2019-04-03T09:40:06.087Z,14.38
2019-04-03T09:41:06.239Z,14.38
2019-04-03T09:42:06.071Z,14.44
2019-04-03T09:43:06.105Z,14.44
2019-04-03T09:44:06.042Z,14.44
2019-04-03T09:45:06.181Z,14.44
2019-04-03T09:46:06.041Z,14.44
2019-04-03T09:47:06.357Z,14.44
2019-04-03T09:48:06.185Z,14.50
2019-04-03T09:50:06.377Z,14.50
2019-04-03T09:51:08.574Z,14.50
2019-04-03T09:52:06.064Z,14.50
2019-04-03T09:53:06.192Z,14.56
2019-04-03T09:54:06.111Z,14.62
2019-04-03T09:55:06.276Z,14.69
2019-04-03T09:56:07.886Z,14.75
2019-04-03T09:57:06.078Z,14.75
2019-04-03T09:58:06.112Z,14.81
2019-04-03T09:59:07.203Z,14.88
2019-04-03T10:00:06.234Z,14.94
2019-04-03T10:01:06.176Z,15.00
2019-04-03T10:02:06.089Z,15.06
2019-04-03T10:03:06.099Z,15.19
2019-04-03T10:04:06.075Z,15.25
2019-04-03T10:05:06.442Z,15.25
2019-04-03T10:06:06.063Z,15.25
2019-04-03T10:07:06.168Z,15.25
2019-04-03T10:08:08.285Z,15.25
2019-04-03T10:09:06.363Z,15.31
2019-04-03T10:10:06.089Z,15.25
2019-04-03T10:11:06.098Z,15.31
2019-04-03T10:12:06.099Z,15.38
2019-04-03T10:13:06.089Z,15.56
2019-04-03T10:14:06.185Z,15.62
2019-04-03T10:15:06.111Z,15.62
2019-04-03T10:16:06.105Z,15.56
2019-04-03T10:17:07.076Z,15.56
2019-04-03T10:18:06.867Z,15.50
2019-04-03T10:19:06.122Z,15.50
2019-04-03T10:20:06.371Z,15.50
2019-04-03T10:21:06.105Z,15.50
2019-04-03T10:22:06.181Z,15.50
2019-04-03T10:23:06.539Z,15.50
2019-04-03T10:24:06.407Z,15.56
2019-04-03T10:25:06.359Z,15.56
2019-04-03T10:26:08.356Z,15.56
2019-04-03T10:27:06.086Z,15.56
2019-04-03T10:28:06.118Z,15.56
2019-04-03T10:29:06.113Z,15.62
2019-04-03T10:30:06.329Z,15.62
2019-04-03T10:31:06.100Z,15.69
2019-04-03T10:32:06.114Z,15.69
2019-04-03T10:33:06.113Z,15.75
2019-04-03T10:34:06.149Z,15.75
2019-04-03T10:35:07.200Z,15.75
2019-04-03T10:36:06.119Z,15.75
2019-04-03T10:37:06.125Z,15.81
2019-04-03T10:38:06.306Z,15.88
2019-04-03T10:39:06.355Z,15.94
2019-04-03T10:40:06.130Z,15.94
2019-04-03T10:41:06.207Z,16.00
2019-04-03T10:44:06.639Z,16.12
2019-04-03T10:45:06.135Z,16.19
2019-04-03T10:46:06.156Z,16.19
2019-04-03T10:47:06.122Z,16.19
2019-04-03T10:48:06.130Z,16.25
2019-04-03T10:49:06.191Z,16.25
2019-04-03T10:50:06.182Z,16.31
2019-04-03T10:51:07.012Z,16.38
2019-04-03T10:52:06.289Z,16.38
2019-04-03T10:53:06.112Z,16.38
2019-04-03T10:54:06.134Z,16.38
2019-04-03T10:55:06.162Z,16.38
2019-04-03T10:56:06.434Z,16.38
2019-04-03T10:57:06.371Z,16.50
2019-04-03T10:58:07.090Z,16.62
2019-04-03T10:59:11.305Z,16.56
2019-04-03T11:00:06.120Z,16.56
2019-04-03T11:01:06.123Z,16.56
2019-04-03T11:02:06.283Z,16.56
2019-04-03T11:03:06.252Z,16.56
2019-04-03T11:04:11.051Z,16.62
2019-04-03T11:05:06.166Z,16.62
2019-04-03T11:06:06.260Z,16.69
2019-04-03T11:07:06.160Z,16.69
2019-04-03T11:08:06.182Z,16.69
2019-04-03T11:09:06.565Z,16.75
2019-04-03T11:10:06.427Z,16.75
2019-04-03T11:11:06.211Z,16.75
2019-04-03T11:12:07.829Z,16.69
2019-04-03T11:13:06.448Z,16.75
2019-04-03T11:14:07.462Z,16.81
2019-04-03T11:15:06.225Z,17.00
2019-04-03T11:16:06.217Z,17.19
2019-04-03T11:17:06.189Z,17.25
2019-04-03T11:18:06.150Z,17.19
2019-04-03T11:19:07.277Z,17.19
2019-04-03T11:20:06.981Z,17.19
2019-04-03T11:21:06.161Z,17.25
2019-04-03T11:22:06.200Z,17.25
2019-04-03T11:23:07.815Z,17.25
2019-04-03T11:24:07.086Z,17.31
2019-04-03T11:25:06.492Z,17.31
2019-04-03T11:26:06.180Z,17.31
2019-04-03T11:27:06.141Z,17.31
2019-04-03T11:28:06.488Z,17.25
2019-04-03T11:29:08.246Z,17.25
2019-04-03T11:30:06.185Z,17.25
2019-04-03T11:31:06.221Z,17.25
2019-04-03T11:33:06.189Z,17.31
2019-04-03T11:33:13.060Z,17.25
2019-04-03T11:34:06.165Z,17.31
2019-04-03T11:35:06.187Z,17.38
2019-04-03T11:36:06.463Z,17.38
2019-04-03T11:37:06.434Z,17.38
2019-04-03T11:38:12.512Z,17.38
2019-04-03T11:39:12.212Z,17.38
2019-04-03T11:40:06.446Z,17.38
2019-04-03T11:41:12.333Z,17.38
2019-04-03T11:42:06.213Z,17.38
2019-04-03T11:43:06.236Z,17.38
2019-04-03T11:44:06.195Z,17.38
2019-04-03T11:45:06.218Z,17.31
2019-04-03T11:46:06.293Z,17.31
2019-04-03T11:47:06.240Z,17.31
2019-04-03T11:48:06.198Z,17.31
2019-04-03T11:49:06.189Z,17.31
2019-04-03T11:50:06.226Z,17.31
2019-04-03T11:52:06.266Z,17.31
2019-04-03T11:53:07.571Z,17.31
2019-04-03T11:54:07.857Z,17.38
2019-04-03T11:55:06.221Z,17.44
2019-04-03T11:56:06.448Z,17.44
2019-04-03T11:57:06.525Z,17.50
2019-04-03T11:58:06.231Z,17.50
2019-04-03T12:00:06.426Z,17.56
2019-04-03T12:00:11.378Z,17.50
2019-04-03T12:01:06.576Z,17.56
2019-04-03T12:02:07.752Z,17.56
2019-04-03T12:03:06.234Z,17.62
2019-04-03T12:04:06.210Z,17.62
2019-04-03T12:06:06.222Z,17.62
2019-04-03T12:07:06.217Z,17.62
2019-04-03T12:08:06.378Z,17.56
2019-04-03T12:09:06.581Z,17.50
2019-04-03T12:10:06.289Z,17.50
2019-04-03T12:11:07.321Z,17.50
2019-04-03T12:12:08.825Z,17.50
2019-04-03T12:13:06.620Z,17.50
2019-04-03T12:14:06.215Z,17.50
2019-04-03T12:15:06.609Z,17.56
2019-04-03T12:16:06.254Z,17.56
2019-04-03T12:17:06.235Z,17.56
2019-04-03T12:18:06.542Z,17.56
2019-04-03T12:19:06.445Z,17.62
2019-04-03T12:20:08.773Z,17.62
2019-04-03T12:21:06.570Z,17.62
2019-04-03T12:22:06.811Z,17.62
2019-04-03T12:23:06.269Z,17.69
2019-04-03T12:24:06.210Z,17.75
2019-04-03T12:25:06.249Z,17.75
2019-04-03T12:26:06.249Z,17.81
2019-04-03T12:29:07.631Z,17.94
2019-04-03T12:30:06.233Z,18.00
2019-04-03T12:31:06.253Z,18.00
2019-04-03T12:32:08.726Z,18.00
2019-04-03T12:33:06.255Z,18.00
2019-04-03T12:34:06.758Z,17.94
2019-04-03T12:35:07.219Z,17.94
2019-04-03T12:36:07.160Z,17.94
2019-04-03T12:37:06.262Z,17.94
2019-04-03T12:38:06.267Z,17.94
2019-04-03T12:39:06.360Z,17.94
2019-04-03T12:40:06.240Z,17.94
2019-04-03T12:41:06.567Z,17.94
2019-04-03T12:42:08.256Z,18.00
2019-04-03T12:43:06.538Z,18.06
2019-04-03T12:44:06.290Z,18.00
2019-04-03T12:45:06.299Z,17.94
2019-04-03T12:46:06.308Z,17.94
2019-04-03T12:47:12.088Z,17.88
2019-04-03T12:48:06.271Z,17.88
2019-04-03T12:49:07.225Z,17.81
2019-04-03T12:50:06.324Z,17.88
2019-04-03T12:51:06.482Z,17.88
2019-04-03T12:52:06.608Z,17.81
2019-04-03T12:53:06.235Z,17.81
2019-04-03T12:54:06.288Z,17.88
2019-04-03T12:55:06.547Z,17.88
2019-04-03T12:56:06.582Z,17.88
2019-04-03T12:57:06.769Z,17.81
2019-04-03T12:58:06.358Z,17.81
2019-04-03T12:59:08.623Z,17.75
2019-04-03T13:00:06.305Z,17.75
2019-04-03T13:01:06.288Z,17.75
2019-04-03T13:02:06.300Z,17.81
2019-04-03T13:03:06.640Z,17.75
2019-04-03T13:04:06.309Z,17.75
2019-04-03T13:05:07.285Z,17.69
2019-04-03T13:06:06.909Z,17.69
2019-04-03T13:07:06.452Z,17.75
2019-04-03T13:08:06.315Z,17.75
2019-04-03T13:09:06.313Z,17.75
2019-04-03T13:10:06.921Z,17.69
2019-04-03T13:11:06.302Z,17.69
2019-04-03T13:12:06.333Z,17.69
2019-04-03T13:13:06.741Z,17.69
2019-04-03T13:14:06.327Z,17.62
2019-04-03T13:15:06.897Z,17.62
2019-04-03T13:16:06.927Z,17.56
2019-04-03T13:17:06.330Z,17.56
2019-04-03T13:18:06.575Z,17.56
2019-04-03T13:19:06.334Z,17.56
2019-04-03T13:20:06.632Z,17.50
2019-04-03T13:21:08.695Z,17.50
2019-04-03T13:22:06.310Z,17.50
2019-04-03T13:23:06.330Z,17.50
2019-04-03T13:25:06.328Z,17.62